sensor_id;sensor_type;location;lat;lon;timestamp;pressure;altitude;pressure_sealevel;temperature
63220;BMP180;49320;52.512;13.448;2022-09-27T00:01:01;99247.00;;;20.40
63220;BMP180;49320;52.512;13.448;2022-09-27T00:03:29;99249.00;;;20.40
63220;BMP180;49320;52.512;13.448;2022-09-27T00:08:35;99238.00;;;20.30
63220;BMP180;49320;52.512;13.448;2022-09-27T00:11:23;99231.00;;;20.30
63220;BMP180;49320;52.512;13.448;2022-09-27T00:13:51;99227.00;;;20.30
63220;BMP180;49320;52.512;13.448;2022-09-27T00:16:17;99217.00;;;20.20
63220;BMP180;49320;52.512;13.448;2022-09-27T00:18:44;99205.00;;;20.20
63220;BMP180;49320;52.512;13.448;2022-09-27T00:21:12;99215.00;;;20.20
63220;BMP180;49320;52.512;13.448;2022-09-27T00:23:40;99209.00;;;20.20
63220;BMP180;49320;52.512;13.448;2022-09-27T00:26:10;99209.00;;;20.20
63220;BMP180;49320;52.512;13.448;2022-09-27T00:28:38;99213.00;;;20.20
63220;BMP180;49320;52.512;13.448;2022-09-27T00:31:21;99221.00;;;20.20
63220;BMP180;49320;52.512;13.448;2022-09-27T00:33:50;99211.00;;;20.20
63220;BMP180;49320;52.512;13.448;2022-09-27T00:36:19;99215.00;;;20.20
63220;BMP180;49320;52.512;13.448;2022-09-27T00:38:46;99213.00;;;20.20
63220;BMP180;49320;52.512;13.448;2022-09-27T00:41:16;99207.00;;;20.20
63220;BMP180;49320;52.512;13.448;2022-09-27T00:46:41;99200.00;;;20.10
63220;BMP180;49320;52.512;13.448;2022-09-27T00:49:24;99195.00;;;20.10
63220;BMP180;49320;52.512;13.448;2022-09-27T00:52:02;99185.00;;;20.10
63220;BMP180;49320;52.512;13.448;2022-09-27T00:54:31;99191.00;;;20.10
63220;BMP180;49320;52.512;13.448;2022-09-27T00:57:02;99191.00;;;20.10
63220;BMP180;49320;52.512;13.448;2022-09-27T00:59:34;99189.00;;;20.10
63220;BMP180;49320;52.512;13.448;2022-09-27T01:02:06;99186.00;;;20.10
63220;BMP180;49320;52.512;13.448;2022-09-27T01:04:35;99180.00;;;20.10
63220;BMP180;49320;52.512;13.448;2022-09-27T01:07:04;99164.00;;;20.10
63220;BMP180;49320;52.512;13.448;2022-09-27T01:09:32;99165.00;;;20.10
63220;BMP180;49320;52.512;13.448;2022-09-27T01:12:27;99164.00;;;20.10
63220;BMP180;49320;52.512;13.448;2022-09-27T01:15:43;99152.00;;;20.00
63220;BMP180;49320;52.512;13.448;2022-09-27T01:18:36;99153.00;;;20.00
63220;BMP180;49320;52.512;13.448;2022-09-27T01:21:34;99139.00;;;20.00
63220;BMP180;49320;52.512;13.448;2022-09-27T01:24:46;99145.00;;;20.00
63220;BMP180;49320;52.512;13.448;2022-09-27T01:30:24;99137.00;;;20.00
63220;BMP180;49320;52.512;13.448;2022-09-27T01:33:24;99138.00;;;19.90
63220;BMP180;49320;52.512;13.448;2022-09-27T01:36:06;99135.00;;;20.00
63220;BMP180;49320;52.512;13.448;2022-09-27T01:41:34;99126.00;;;20.00
63220;BMP180;49320;52.512;13.448;2022-09-27T01:44:36;99128.00;;;20.00
63220;BMP180;49320;52.512;13.448;2022-09-27T01:47:13;99126.00;;;19.90
63220;BMP180;49320;52.512;13.448;2022-09-27T01:49:56;99121.00;;;20.00
63220;BMP180;49320;52.512;13.448;2022-09-27T01:52:38;99126.00;;;20.00
63220;BMP180;49320;52.512;13.448;2022-09-27T01:55:12;99115.00;;;20.00
63220;BMP180;49320;52.512;13.448;2022-09-27T01:57:48;99103.00;;;20.00
63220;BMP180;49320;52.512;13.448;2022-09-27T02:00:19;99106.00;;;20.00
63220;BMP180;49320;52.512;13.448;2022-09-27T02:03:04;99107.00;;;20.10
63220;BMP180;49320;52.512;13.448;2022-09-27T02:05:42;99102.00;;;20.10
63220;BMP180;49320;52.512;13.448;2022-09-27T02:08:33;99094.00;;;20.10
63220;BMP180;49320;52.512;13.448;2022-09-27T02:11:09;99092.00;;;20.10
63220;BMP180;49320;52.512;13.448;2022-09-27T02:13:57;99091.00;;;20.10
63220;BMP180;49320;52.512;13.448;2022-09-27T02:16:51;99084.00;;;20.10
63220;BMP180;49320;52.512;13.448;2022-09-27T02:22:34;99081.00;;;20.10
63220;BMP180;49320;52.512;13.448;2022-09-27T02:25:22;99069.00;;;20.10
63220;BMP180;49320;52.512;13.448;2022-09-27T02:28:30;99068.00;;;20.10
63220;BMP180;49320;52.512;13.448;2022-09-27T02:30:59;99062.00;;;20.10
63220;BMP180;49320;52.512;13.448;2022-09-27T02:33:33;99049.00;;;20.20
63220;BMP180;49320;52.512;13.448;2022-09-27T02:36:01;99051.00;;;20.20
63220;BMP180;49320;52.512;13.448;2022-09-27T02:38:28;99049.00;;;20.20
63220;BMP180;49320;52.512;13.448;2022-09-27T02:40:55;99053.00;;;20.20
63220;BMP180;49320;52.512;13.448;2022-09-27T02:43:27;99044.00;;;20.30
63220;BMP180;49320;52.512;13.448;2022-09-27T02:49:22;99044.00;;;20.30
63220;BMP180;49320;52.512;13.448;2022-09-27T02:52:14;99028.00;;;20.30
63220;BMP180;49320;52.512;13.448;2022-09-27T02:58:21;99034.00;;;20.30
63220;BMP180;49320;52.512;13.448;2022-09-27T03:01:13;99028.00;;;20.30
63220;BMP180;49320;52.512;13.448;2022-09-27T03:03:57;99030.00;;;20.30
63220;BMP180;49320;52.512;13.448;2022-09-27T03:06:26;99017.00;;;20.30
63220;BMP180;49320;52.512;13.448;2022-09-27T03:08:53;99026.00;;;20.40
63220;BMP180;49320;52.512;13.448;2022-09-27T03:11:22;99028.00;;;20.40
63220;BMP180;49320;52.512;13.448;2022-09-27T03:13:49;99035.00;;;20.40
63220;BMP180;49320;52.512;13.448;2022-09-27T03:16:34;99022.00;;;20.40
63220;BMP180;49320;52.512;13.448;2022-09-27T03:19:01;99019.00;;;20.40
63220;BMP180;49320;52.512;13.448;2022-09-27T03:21:28;99016.00;;;20.40
63220;BMP180;49320;52.512;13.448;2022-09-27T03:23:54;99012.00;;;20.50
63220;BMP180;49320;52.512;13.448;2022-09-27T03:26:22;99016.00;;;20.50
63220;BMP180;49320;52.512;13.448;2022-09-27T03:28:49;99017.00;;;20.50
63220;BMP180;49320;52.512;13.448;2022-09-27T03:31:16;99014.00;;;20.50
63220;BMP180;49320;52.512;13.448;2022-09-27T03:33:43;99005.00;;;20.50
63220;BMP180;49320;52.512;13.448;2022-09-27T03:36:10;99008.00;;;20.50
63220;BMP180;49320;52.512;13.448;2022-09-27T03:38:37;99000.00;;;20.50
63220;BMP180;49320;52.512;13.448;2022-09-27T03:41:04;98997.00;;;20.50
63220;BMP180;49320;52.512;13.448;2022-09-27T03:43:31;98995.00;;;20.50
63220;BMP180;49320;52.512;13.448;2022-09-27T03:45:58;98992.00;;;20.40
63220;BMP180;49320;52.512;13.448;2022-09-27T03:48:26;98990.00;;;20.40
63220;BMP180;49320;52.512;13.448;2022-09-27T03:50:54;98984.00;;;20.40
63220;BMP180;49320;52.512;13.448;2022-09-27T03:53:21;98997.00;;;20.50
63220;BMP180;49320;52.512;13.448;2022-09-27T03:55:48;98999.00;;;20.40
63220;BMP180;49320;52.512;13.448;2022-09-27T03:58:15;98991.00;;;20.40
63220;BMP180;49320;52.512;13.448;2022-09-27T04:00:41;98983.00;;;20.40
63220;BMP180;49320;52.512;13.448;2022-09-27T04:03:09;98978.00;;;20.40
63220;BMP180;49320;52.512;13.448;2022-09-27T04:05:37;98976.00;;;20.30
63220;BMP180;49320;52.512;13.448;2022-09-27T04:08:04;98981.00;;;20.30
63220;BMP180;49320;52.512;13.448;2022-09-27T04:10:31;98981.00;;;20.30
63220;BMP180;49320;52.512;13.448;2022-09-27T04:12:58;98980.00;;;20.30
63220;BMP180;49320;52.512;13.448;2022-09-27T04:15:25;98965.00;;;20.30
63220;BMP180;49320;52.512;13.448;2022-09-27T04:17:52;98981.00;;;20.20
63220;BMP180;49320;52.512;13.448;2022-09-27T04:20:19;98980.00;;;20.20
63220;BMP180;49320;52.512;13.448;2022-09-27T04:22:46;98972.00;;;20.20
63220;BMP180;49320;52.512;13.448;2022-09-27T04:25:13;98968.00;;;20.20
63220;BMP180;49320;52.512;13.448;2022-09-27T04:27:44;98965.00;;;20.20
63220;BMP180;49320;52.512;13.448;2022-09-27T04:30:12;98969.00;;;20.20
63220;BMP180;49320;52.512;13.448;2022-09-27T04:32:43;98970.00;;;20.20
63220;BMP180;49320;52.512;13.448;2022-09-27T04:35:12;98970.00;;;20.10
63220;BMP180;49320;52.512;13.448;2022-09-27T04:37:58;98972.00;;;20.10
63220;BMP180;49320;52.512;13.448;2022-09-27T04:40:25;98969.00;;;20.10
63220;BMP180;49320;52.512;13.448;2022-09-27T04:42:52;98971.00;;;20.10
63220;BMP180;49320;52.512;13.448;2022-09-27T04:45:19;98973.00;;;20.00
63220;BMP180;49320;52.512;13.448;2022-09-27T04:47:49;98967.00;;;20.00
63220;BMP180;49320;52.512;13.448;2022-09-27T04:50:17;98972.00;;;20.00
63220;BMP180;49320;52.512;13.448;2022-09-27T04:52:52;98970.00;;;20.00
63220;BMP180;49320;52.512;13.448;2022-09-27T04:55:20;98969.00;;;20.00
63220;BMP180;49320;52.512;13.448;2022-09-27T04:57:48;98960.00;;;19.90
63220;BMP180;49320;52.512;13.448;2022-09-27T05:00:16;98971.00;;;19.90
63220;BMP180;49320;52.512;13.448;2022-09-27T05:02:44;98970.00;;;19.90
63220;BMP180;49320;52.512;13.448;2022-09-27T05:05:11;98975.00;;;19.80
63220;BMP180;49320;52.512;13.448;2022-09-27T05:07:38;98976.00;;;19.80
63220;BMP180;49320;52.512;13.448;2022-09-27T05:10:07;98966.00;;;19.80
63220;BMP180;49320;52.512;13.448;2022-09-27T05:12:34;98970.00;;;19.70
63220;BMP180;49320;52.512;13.448;2022-09-27T05:15:03;98969.00;;;19.70
63220;BMP180;49320;52.512;13.448;2022-09-27T05:17:30;98972.00;;;19.70
63220;BMP180;49320;52.512;13.448;2022-09-27T05:19:56;98970.00;;;19.70
63220;BMP180;49320;52.512;13.448;2022-09-27T05:22:23;98970.00;;;19.70
63220;BMP180;49320;52.512;13.448;2022-09-27T05:24:50;98968.00;;;19.70
63220;BMP180;49320;52.512;13.448;2022-09-27T05:27:17;98962.00;;;19.60
63220;BMP180;49320;52.512;13.448;2022-09-27T05:29:46;98968.00;;;19.70
63220;BMP180;49320;52.512;13.448;2022-09-27T05:32:14;98975.00;;;19.70
63220;BMP180;49320;52.512;13.448;2022-09-27T05:34:42;98977.00;;;19.60
63220;BMP180;49320;52.512;13.448;2022-09-27T05:37:09;98971.00;;;19.60
63220;BMP180;49320;52.512;13.448;2022-09-27T05:39:36;98975.00;;;19.50
63220;BMP180;49320;52.512;13.448;2022-09-27T05:42:03;98975.00;;;19.50
63220;BMP180;49320;52.512;13.448;2022-09-27T05:44:30;98985.00;;;19.40
63220;BMP180;49320;52.512;13.448;2022-09-27T05:47:00;98973.00;;;19.40
63220;BMP180;49320;52.512;13.448;2022-09-27T05:49:30;98976.00;;;19.30
63220;BMP180;49320;52.512;13.448;2022-09-27T05:51:58;98977.00;;;19.30
63220;BMP180;49320;52.512;13.448;2022-09-27T05:54:25;98982.00;;;19.30
63220;BMP180;49320;52.512;13.448;2022-09-27T05:56:55;98984.00;;;19.30
63220;BMP180;49320;52.512;13.448;2022-09-27T05:59:24;98977.00;;;19.30
63220;BMP180;49320;52.512;13.448;2022-09-27T06:01:52;98971.00;;;19.40
63220;BMP180;49320;52.512;13.448;2022-09-27T06:04:20;98971.00;;;19.30
63220;BMP180;49320;52.512;13.448;2022-09-27T06:06:47;98971.00;;;19.30
63220;BMP180;49320;52.512;13.448;2022-09-27T06:09:15;98969.00;;;19.30
63220;BMP180;49320;52.512;13.448;2022-09-27T06:11:43;98973.00;;;19.30
63220;BMP180;49320;52.512;13.448;2022-09-27T06:14:14;98964.00;;;19.30
63220;BMP180;49320;52.512;13.448;2022-09-27T06:16:41;98966.00;;;19.40
63220;BMP180;49320;52.512;13.448;2022-09-27T06:19:08;98968.00;;;19.40
63220;BMP180;49320;52.512;13.448;2022-09-27T06:21:34;98958.00;;;19.40
63220;BMP180;49320;52.512;13.448;2022-09-27T06:24:03;98967.00;;;19.40
63220;BMP180;49320;52.512;13.448;2022-09-27T06:26:30;98967.00;;;19.40
63220;BMP180;49320;52.512;13.448;2022-09-27T06:28:57;98968.00;;;19.40
63220;BMP180;49320;52.512;13.448;2022-09-27T06:31:24;98975.00;;;19.40
63220;BMP180;49320;52.512;13.448;2022-09-27T06:33:50;98961.00;;;19.40
63220;BMP180;49320;52.512;13.448;2022-09-27T06:36:17;98967.00;;;19.40
63220;BMP180;49320;52.512;13.448;2022-09-27T06:38:44;98966.00;;;19.40
63220;BMP180;49320;52.512;13.448;2022-09-27T06:41:14;98966.00;;;19.50
63220;BMP180;49320;52.512;13.448;2022-09-27T06:43:41;98968.00;;;19.50
63220;BMP180;49320;52.512;13.448;2022-09-27T06:46:08;98965.00;;;19.50
63220;BMP180;49320;52.512;13.448;2022-09-27T06:48:35;98968.00;;;19.50
63220;BMP180;49320;52.512;13.448;2022-09-27T06:51:04;98968.00;;;19.50
63220;BMP180;49320;52.512;13.448;2022-09-27T06:53:31;98962.00;;;19.60
63220;BMP180;49320;52.512;13.448;2022-09-27T06:56:00;98968.00;;;19.60
63220;BMP180;49320;52.512;13.448;2022-09-27T06:58:28;98975.00;;;19.60
63220;BMP180;49320;52.512;13.448;2022-09-27T07:01:13;98974.00;;;19.60
63220;BMP180;49320;52.512;13.448;2022-09-27T07:03:40;98969.00;;;19.60
63220;BMP180;49320;52.512;13.448;2022-09-27T07:06:20;98972.00;;;19.60
63220;BMP180;49320;52.512;13.448;2022-09-27T07:08:52;98976.00;;;19.60
63220;BMP180;49320;52.512;13.448;2022-09-27T07:11:21;98975.00;;;19.70
63220;BMP180;49320;52.512;13.448;2022-09-27T07:13:49;98968.00;;;19.70
63220;BMP180;49320;52.512;13.448;2022-09-27T07:16:17;98973.00;;;19.70
63220;BMP180;49320;52.512;13.448;2022-09-27T07:18:47;98971.00;;;19.70
63220;BMP180;49320;52.512;13.448;2022-09-27T07:21:15;98968.00;;;19.80
63220;BMP180;49320;52.512;13.448;2022-09-27T07:23:41;98972.00;;;19.80
63220;BMP180;49320;52.512;13.448;2022-09-27T07:26:09;98965.00;;;19.90
63220;BMP180;49320;52.512;13.448;2022-09-27T07:28:36;98980.00;;;19.90
63220;BMP180;49320;52.512;13.448;2022-09-27T07:31:03;98987.00;;;19.90
63220;BMP180;49320;52.512;13.448;2022-09-27T07:33:31;98979.00;;;20.00
63220;BMP180;49320;52.512;13.448;2022-09-27T07:35:58;98970.00;;;20.00
63220;BMP180;49320;52.512;13.448;2022-09-27T07:38:25;98975.00;;;20.00
63220;BMP180;49320;52.512;13.448;2022-09-27T07:40:51;98977.00;;;20.00
63220;BMP180;49320;52.512;13.448;2022-09-27T07:43:19;98971.00;;;20.00
63220;BMP180;49320;52.512;13.448;2022-09-27T07:45:46;98975.00;;;19.90
63220;BMP180;49320;52.512;13.448;2022-09-27T07:48:15;98975.00;;;20.00
63220;BMP180;49320;52.512;13.448;2022-09-27T07:50:42;98980.00;;;20.00
63220;BMP180;49320;52.512;13.448;2022-09-27T07:53:09;98978.00;;;20.00
63220;BMP180;49320;52.512;13.448;2022-09-27T07:55:39;98971.00;;;20.00
63220;BMP180;49320;52.512;13.448;2022-09-27T07:58:10;98974.00;;;20.00
63220;BMP180;49320;52.512;13.448;2022-09-27T08:00:38;98968.00;;;20.00
63220;BMP180;49320;52.512;13.448;2022-09-27T08:03:09;98971.00;;;19.90
63220;BMP180;49320;52.512;13.448;2022-09-27T08:05:37;98980.00;;;19.90
63220;BMP180;49320;52.512;13.448;2022-09-27T08:08:04;98975.00;;;19.90
63220;BMP180;49320;52.512;13.448;2022-09-27T08:10:32;98982.00;;;19.90
63220;BMP180;49320;52.512;13.448;2022-09-27T08:13:04;98979.00;;;19.90
63220;BMP180;49320;52.512;13.448;2022-09-27T08:15:32;98984.00;;;19.90
63220;BMP180;49320;52.512;13.448;2022-09-27T08:18:01;98979.00;;;19.80
63220;BMP180;49320;52.512;13.448;2022-09-27T08:20:28;98981.00;;;19.80
63220;BMP180;49320;52.512;13.448;2022-09-27T08:22:55;98983.00;;;19.80
63220;BMP180;49320;52.512;13.448;2022-09-27T08:25:22;98985.00;;;19.80
63220;BMP180;49320;52.512;13.448;2022-09-27T08:28:01;98980.00;;;19.80
63220;BMP180;49320;52.512;13.448;2022-09-27T08:30:30;98983.00;;;19.90
63220;BMP180;49320;52.512;13.448;2022-09-27T08:33:00;98981.00;;;19.90
63220;BMP180;49320;52.512;13.448;2022-09-27T08:35:30;98984.00;;;19.90
63220;BMP180;49320;52.512;13.448;2022-09-27T08:38:01;98974.00;;;19.90
63220;BMP180;49320;52.512;13.448;2022-09-27T08:48:35;98987.00;;;19.90
63220;BMP180;49320;52.512;13.448;2022-09-27T08:51:10;98995.00;;;19.90
63220;BMP180;49320;52.512;13.448;2022-09-27T08:53:52;98983.00;;;20.00
63220;BMP180;49320;52.512;13.448;2022-09-27T08:56:21;99003.00;;;20.00
63220;BMP180;49320;52.512;13.448;2022-09-27T08:58:57;98990.00;;;20.00
63220;BMP180;49320;52.512;13.448;2022-09-27T09:01:27;98999.00;;;20.10
63220;BMP180;49320;52.512;13.448;2022-09-27T09:03:59;98986.00;;;20.10
63220;BMP180;49320;52.512;13.448;2022-09-27T09:09:40;98992.00;;;20.20
63220;BMP180;49320;52.512;13.448;2022-09-27T09:12:50;98984.00;;;20.20
63220;BMP180;49320;52.512;13.448;2022-09-27T09:21:47;98986.00;;;20.30
63220;BMP180;49320;52.512;13.448;2022-09-27T09:24:56;98987.00;;;20.30
63220;BMP180;49320;52.512;13.448;2022-09-27T09:27:43;98985.00;;;20.40
63220;BMP180;49320;52.512;13.448;2022-09-27T09:30:19;98986.00;;;20.40
63220;BMP180;49320;52.512;13.448;2022-09-27T09:33:19;98990.00;;;20.40
63220;BMP180;49320;52.512;13.448;2022-09-27T09:36:01;98976.00;;;20.40
63220;BMP180;49320;52.512;13.448;2022-09-27T09:38:39;98977.00;;;20.50
63220;BMP180;49320;52.512;13.448;2022-09-27T09:41:23;98977.00;;;20.50
63220;BMP180;49320;52.512;13.448;2022-09-27T09:44:12;98975.00;;;20.60
63220;BMP180;49320;52.512;13.448;2022-09-27T09:46:46;98987.00;;;20.70
63220;BMP180;49320;52.512;13.448;2022-09-27T09:49:23;98991.00;;;20.70
63220;BMP180;49320;52.512;13.448;2022-09-27T09:52:01;98983.00;;;20.70
63220;BMP180;49320;52.512;13.448;2022-09-27T09:54:43;98976.00;;;20.70
63220;BMP180;49320;52.512;13.448;2022-09-27T09:57:27;98975.00;;;20.70
63220;BMP180;49320;52.512;13.448;2022-09-27T10:00:02;98973.00;;;20.70
63220;BMP180;49320;52.512;13.448;2022-09-27T10:02:38;98974.00;;;20.70
63220;BMP180;49320;52.512;13.448;2022-09-27T10:05:06;98965.00;;;20.80
63220;BMP180;49320;52.512;13.448;2022-09-27T10:07:38;98974.00;;;20.80
63220;BMP180;49320;52.512;13.448;2022-09-27T10:10:07;98968.00;;;20.80
63220;BMP180;49320;52.512;13.448;2022-09-27T10:12:37;98960.00;;;20.90
63220;BMP180;49320;52.512;13.448;2022-09-27T10:15:05;98968.00;;;20.90
63220;BMP180;49320;52.512;13.448;2022-09-27T10:17:41;98963.00;;;21.00
63220;BMP180;49320;52.512;13.448;2022-09-27T10:20:42;98963.00;;;21.20
63220;BMP180;49320;52.512;13.448;2022-09-27T10:23:20;98969.00;;;21.30
63220;BMP180;49320;52.512;13.448;2022-09-27T10:25:59;98966.00;;;21.40
63220;BMP180;49320;52.512;13.448;2022-09-27T10:28:42;98971.00;;;21.50
63220;BMP180;49320;52.512;13.448;2022-09-27T10:31:15;98960.00;;;21.60
63220;BMP180;49320;52.512;13.448;2022-09-27T10:33:58;98963.00;;;21.60
63220;BMP180;49320;52.512;13.448;2022-09-27T10:36:34;98965.00;;;21.70
63220;BMP180;49320;52.512;13.448;2022-09-27T10:39:04;98957.00;;;21.70
63220;BMP180;49320;52.512;13.448;2022-09-27T10:41:41;98959.00;;;21.70
63220;BMP180;49320;52.512;13.448;2022-09-27T10:44:27;98955.00;;;21.80
63220;BMP180;49320;52.512;13.448;2022-09-27T10:47:08;98968.00;;;21.90
63220;BMP180;49320;52.512;13.448;2022-09-27T10:49:39;98962.00;;;22.00
63220;BMP180;49320;52.512;13.448;2022-09-27T10:52:19;98955.00;;;22.00
63220;BMP180;49320;52.512;13.448;2022-09-27T10:55:27;98957.00;;;22.10
63220;BMP180;49320;52.512;13.448;2022-09-27T10:57:54;98953.00;;;22.30
63220;BMP180;49320;52.512;13.448;2022-09-27T11:00:31;98942.00;;;22.50
63220;BMP180;49320;52.512;13.448;2022-09-27T11:03:14;98952.00;;;22.70
63220;BMP180;49320;52.512;13.448;2022-09-27T11:05:42;98950.00;;;22.80
63220;BMP180;49320;52.512;13.448;2022-09-27T11:11:19;98951.00;;;23.10
63220;BMP180;49320;52.512;13.448;2022-09-27T11:14:04;98943.00;;;23.10
63220;BMP180;49320;52.512;13.448;2022-09-27T11:17:05;98951.00;;;23.10
63220;BMP180;49320;52.512;13.448;2022-09-27T11:20:30;98945.00;;;23.00
63220;BMP180;49320;52.512;13.448;2022-09-27T11:36:04;98951.00;;;22.30
63220;BMP180;49320;52.512;13.448;2022-09-27T11:41:58;98947.00;;;22.10
63220;BMP180;49320;52.512;13.448;2022-09-27T11:44:52;98953.00;;;22.00
63220;BMP180;49320;52.512;13.448;2022-09-27T11:48:08;98948.00;;;22.00
63220;BMP180;49320;52.512;13.448;2022-09-27T11:51:07;98951.00;;;21.80
63220;BMP180;49320;52.512;13.448;2022-09-27T11:57:19;98979.00;;;21.40
63220;BMP180;49320;52.512;13.448;2022-09-27T12:03:27;98994.00;;;20.90
63220;BMP180;49320;52.512;13.448;2022-09-27T12:06:12;99002.00;;;20.70
63220;BMP180;49320;52.512;13.448;2022-09-27T12:09:05;98998.00;;;20.30
63220;BMP180;49320;52.512;13.448;2022-09-27T12:11:45;99004.00;;;20.10
63220;BMP180;49320;52.512;13.448;2022-09-27T12:14:51;98993.00;;;19.90
63220;BMP180;49320;52.512;13.448;2022-09-27T12:17:25;98998.00;;;19.70
63220;BMP180;49320;52.512;13.448;2022-09-27T12:19:59;99013.00;;;19.50
63220;BMP180;49320;52.512;13.448;2022-09-27T12:22:36;99018.00;;;19.30
63220;BMP180;49320;52.512;13.448;2022-09-27T12:25:28;99011.00;;;19.20
63220;BMP180;49320;52.512;13.448;2022-09-27T12:28:09;99012.00;;;19.20
63220;BMP180;49320;52.512;13.448;2022-09-27T12:30:41;99017.00;;;19.10
63220;BMP180;49320;52.512;13.448;2022-09-27T12:33:33;99014.00;;;19.10
63220;BMP180;49320;52.512;13.448;2022-09-27T12:36:08;99015.00;;;19.20
63220;BMP180;49320;52.512;13.448;2022-09-27T12:39:12;99015.00;;;19.20
63220;BMP180;49320;52.512;13.448;2022-09-27T12:41:58;99018.00;;;19.30
63220;BMP180;49320;52.512;13.448;2022-09-27T12:44:38;99008.00;;;19.40
63220;BMP180;49320;52.512;13.448;2022-09-27T12:50:42;99008.00;;;19.60
63220;BMP180;49320;52.512;13.448;2022-09-27T12:53:16;99013.00;;;19.80
63220;BMP180;49320;52.512;13.448;2022-09-27T12:56:38;99005.00;;;19.90
63220;BMP180;49320;52.512;13.448;2022-09-27T12:59:45;99010.00;;;20.10
63220;BMP180;49320;52.512;13.448;2022-09-27T13:03:21;99010.00;;;20.30
63220;BMP180;49320;52.512;13.448;2022-09-27T13:12:02;99010.00;;;20.70
63220;BMP180;49320;52.512;13.448;2022-09-27T13:22:58;99027.00;;;21.30
63220;BMP180;49320;52.512;13.448;2022-09-27T13:25:58;99022.00;;;21.30
63220;BMP180;49320;52.512;13.448;2022-09-27T13:31:02;99035.00;;;21.50
63220;BMP180;49320;52.512;13.448;2022-09-27T13:33:50;99028.00;;;21.50
63220;BMP180;49320;52.512;13.448;2022-09-27T13:39:05;99032.00;;;21.50
63220;BMP180;49320;52.512;13.448;2022-09-27T13:45:07;99044.00;;;21.50
63220;BMP180;49320;52.512;13.448;2022-09-27T13:47:46;99039.00;;;21.50
63220;BMP180;49320;52.512;13.448;2022-09-27T13:50:38;99037.00;;;21.40
63220;BMP180;49320;52.512;13.448;2022-09-27T13:53:34;99041.00;;;21.40
63220;BMP180;49320;52.512;13.448;2022-09-27T13:56:03;99047.00;;;21.30
63220;BMP180;49320;52.512;13.448;2022-09-27T13:58:41;99048.00;;;21.30
63220;BMP180;49320;52.512;13.448;2022-09-27T14:01:36;99048.00;;;21.30
63220;BMP180;49320;52.512;13.448;2022-09-27T14:04:23;99035.00;;;21.30
63220;BMP180;49320;52.512;13.448;2022-09-27T14:06:56;99042.00;;;21.20
63220;BMP180;49320;52.512;13.448;2022-09-27T14:09:30;99052.00;;;21.20
63220;BMP180;49320;52.512;13.448;2022-09-27T14:12:03;99054.00;;;21.20
63220;BMP180;49320;52.512;13.448;2022-09-27T14:14:32;99052.00;;;21.20
63220;BMP180;49320;52.512;13.448;2022-09-27T14:16:59;99052.00;;;21.20
63220;BMP180;49320;52.512;13.448;2022-09-27T14:19:29;99038.00;;;21.20
63220;BMP180;49320;52.512;13.448;2022-09-27T14:21:56;99048.00;;;21.20
63220;BMP180;49320;52.512;13.448;2022-09-27T14:27:15;99059.00;;;21.10
63220;BMP180;49320;52.512;13.448;2022-09-27T14:32:25;99058.00;;;21.00
63220;BMP180;49320;52.512;13.448;2022-09-27T14:35:14;99074.00;;;21.00
63220;BMP180;49320;52.512;13.448;2022-09-27T14:38:10;99073.00;;;20.90
63220;BMP180;49320;52.512;13.448;2022-09-27T14:41:01;99065.00;;;20.90
63220;BMP180;49320;52.512;13.448;2022-09-27T14:43:29;99077.00;;;21.00
63220;BMP180;49320;52.512;13.448;2022-09-27T14:46:05;99074.00;;;21.00
63220;BMP180;49320;52.512;13.448;2022-09-27T14:48:38;99075.00;;;21.00
63220;BMP180;49320;52.512;13.448;2022-09-27T14:53:48;99089.00;;;21.00
63220;BMP180;49320;52.512;13.448;2022-09-27T14:56:22;99108.00;;;21.00
63220;BMP180;49320;52.512;13.448;2022-09-27T14:59:09;99088.00;;;21.00
63220;BMP180;49320;52.512;13.448;2022-09-27T15:01:38;99102.00;;;20.90
63220;BMP180;49320;52.512;13.448;2022-09-27T15:04:12;99095.00;;;20.90
63220;BMP180;49320;52.512;13.448;2022-09-27T15:06:40;99107.00;;;20.90
63220;BMP180;49320;52.512;13.448;2022-09-27T15:09:12;99114.00;;;20.90
63220;BMP180;49320;52.512;13.448;2022-09-27T15:11:41;99112.00;;;20.90
63220;BMP180;49320;52.512;13.448;2022-09-27T15:14:15;99105.00;;;20.90
63220;BMP180;49320;52.512;13.448;2022-09-27T15:16:48;99109.00;;;20.90
63220;BMP180;49320;52.512;13.448;2022-09-27T15:19:28;99111.00;;;20.90
63220;BMP180;49320;52.512;13.448;2022-09-27T15:21:55;99111.00;;;20.90
63220;BMP180;49320;52.512;13.448;2022-09-27T15:27:14;99113.00;;;20.80
63220;BMP180;49320;52.512;13.448;2022-09-27T15:29:49;99113.00;;;20.80
63220;BMP180;49320;52.512;13.448;2022-09-27T15:32:23;99105.00;;;20.80
63220;BMP180;49320;52.512;13.448;2022-09-27T15:34:51;99116.00;;;20.70
63220;BMP180;49320;52.512;13.448;2022-09-27T15:37:35;99115.00;;;20.70
63220;BMP180;49320;52.512;13.448;2022-09-27T15:42:58;99125.00;;;20.70
63220;BMP180;49320;52.512;13.448;2022-09-27T15:45:33;99129.00;;;20.70
63220;BMP180;49320;52.512;13.448;2022-09-27T15:48:18;99133.00;;;20.70
63220;BMP180;49320;52.512;13.448;2022-09-27T15:50:48;99122.00;;;20.70
63220;BMP180;49320;52.512;13.448;2022-09-27T15:56:05;99134.00;;;20.70
63220;BMP180;49320;52.512;13.448;2022-09-27T15:58:34;99135.00;;;20.70
63220;BMP180;49320;52.512;13.448;2022-09-27T16:01:03;99146.00;;;20.70
63220;BMP180;49320;52.512;13.448;2022-09-27T16:03:34;99145.00;;;20.60
63220;BMP180;49320;52.512;13.448;2022-09-27T16:06:02;99147.00;;;20.60
63220;BMP180;49320;52.512;13.448;2022-09-27T16:08:29;99151.00;;;20.50
63220;BMP180;49320;52.512;13.448;2022-09-27T16:10:58;99166.00;;;20.40
63220;BMP180;49320;52.512;13.448;2022-09-27T16:13:26;99164.00;;;20.30
63220;BMP180;49320;52.512;13.448;2022-09-27T16:15:58;99153.00;;;20.20
63220;BMP180;49320;52.512;13.448;2022-09-27T16:18:25;99160.00;;;20.20
63220;BMP180;49320;52.512;13.448;2022-09-27T16:20:57;99155.00;;;20.10
63220;BMP180;49320;52.512;13.448;2022-09-27T16:23:24;99147.00;;;20.00
63220;BMP180;49320;52.512;13.448;2022-09-27T16:25:52;99154.00;;;20.00
63220;BMP180;49320;52.512;13.448;2022-09-27T16:28:19;99145.00;;;19.90